Time;durP1;ratioP1;P1;durP2;ratioP2;P2;SDS_P1;SDS_P2;PMS_P1;PMS_P2;Temp;Humidity;BMP_temperature;BMP_pressure;BME280_temperature;BME280_humidity;BME280_pressure;Samples;Min_cycle;Max_cycle;Signal;HPM_P1;HPM_P2
2021/06/01 00:01:52;;;;;;;6.25;5.33;;;;;;;21.99;58.13;100915.40;1708509;83;21085;-50
2021/06/01 00:04:19;;;;;;;7.75;5.17;;;;;;;21.92;58.18;100910.16;1697627;83;21650;-50
2021/06/01 00:06:46;;;;;;;6.33;4.60;;;;;;;21.92;58.29;100911.48;1702041;83;21055;-50
2021/06/01 00:09:16;;;;;;;4.50;3.95;;;;;;;21.95;58.36;100899.34;1716872;83;22362;-49
2021/06/01 00:11:45;;;;;;;5.00;3.85;;;;;;;21.98;58.29;100891.20;1690513;83;21105;-49
2021/06/01 00:14:12;;;;;;;5.33;4.25;;;;;;;21.97;58.23;100893.45;1736768;79;21076;-48
2021/06/01 00:16:39;;;;;;;6.67;4.10;;;;;;;21.95;58.31;100895.36;1769773;79;21095;-49
2021/06/01 00:19:07;;;;;;;9.88;4.30;;;;;;;21.94;58.41;100902.95;1774423;80;21028;-49
2021/06/01 00:21:35;;;;;;;4.08;3.65;;;;;;;21.96;58.51;100897.54;1774033;79;21024;-49
2021/06/01 00:24:04;;;;;;;7.42;3.60;;;;;;;21.98;58.53;100904.45;1780969;79;21571;-50
2021/06/01 00:26:31;;;;;;;7.60;4.20;;;;;;;22.02;58.27;100899.31;1770405;80;21075;-49
2021/06/01 00:28:59;;;;;;;5.83;3.50;;;;;;;22.03;58.23;100898.84;1782915;79;21067;-49
2021/06/01 00:31:26;;;;;;;4.22;3.80;;;;;;;22.01;58.22;100904.22;1782465;79;21035;-50
2021/06/01 00:33:53;;;;;;;5.08;3.45;;;;;;;22.02;58.17;100903.29;1761016;80;21020;-49
2021/06/01 00:36:19;;;;;;;5.28;3.75;;;;;;;21.98;58.30;100903.59;1767227;80;21095;-49
2021/06/01 00:38:46;;;;;;;8.55;4.22;;;;;;;21.93;58.46;100898.59;1775378;80;21008;-50
2021/06/01 00:41:13;;;;;;;10.53;3.67;;;;;;;21.92;58.33;100899.55;1756724;80;21036;-49
2021/06/01 00:43:40;;;;;;;4.20;3.80;;;;;;;21.94;58.14;100898.98;1776133;80;21073;-49
2021/06/01 00:46:08;;;;;;;8.55;4.90;;;;;;;21.93;58.15;100896.44;1769329;80;21040;-50
2021/06/01 00:48:35;;;;;;;6.25;4.83;;;;;;;21.94;58.22;100906.06;1767544;79;21516;-49
2021/06/01 00:51:01;;;;;;;7.47;4.60;;;;;;;21.98;58.12;100893.84;1764741;79;21069;-49
2021/06/01 00:53:28;;;;;;;7.10;4.28;;;;;;;21.97;57.94;100890.81;1765538;80;21051;-49
2021/06/01 00:55:55;;;;;;;7.22;3.98;;;;;;;21.96;57.85;100899.72;1773919;79;21106;-50
2021/06/01 00:58:24;;;;;;;4.65;3.55;;;;;;;21.93;57.91;100887.16;1774414;79;21043;-49
2021/06/01 01:03:20;;;;;;;5.15;4.28;;;;;;;21.93;58.02;100891.96;1768120;80;21075;-49
2021/06/01 01:05:51;;;;;;;5.17;4.67;;;;;;;21.83;58.38;100894.85;1766086;80;21047;-50
2021/06/01 01:11:36;;;;;;;9.13;4.40;;;;;;;21.72;58.76;100901.31;1714597;81;21111;-49
2021/06/01 01:14:10;;;;;;;6.72;4.60;;;;;;;21.68;58.74;100897.14;1677870;83;21331;-50
2021/06/01 01:16:41;;;;;;;6.10;4.37;;;;;;;21.61;58.73;100895.86;1679135;83;21601;-49
2021/06/01 01:19:14;;;;;;;4.65;3.75;;;;;;;21.55;58.78;100896.25;1687527;84;21063;-49
2021/06/01 01:21:49;;;;;;;4.87;4.17;;;;;;;21.45;58.85;100896.48;1636626;86;21083;-49
2021/06/01 01:24:59;;;;;;;6.22;4.25;;;;;;;21.41;59.04;100900.27;1609833;88;21089;-49
2021/06/01 01:28:08;;;;;;;5.78;4.42;;;;;;;21.38;59.08;100903.09;1576436;89;21623;-49
2021/06/01 01:30:47;;;;;;;5.50;3.95;;;;;;;21.29;59.23;100894.44;1631036;86;21111;-50
2021/06/01 01:33:28;;;;;;;8.28;4.45;;;;;;;21.17;59.76;100900.48;1620495;86;21120;-49
2021/06/01 01:35:58;;;;;;;5.70;4.45;;;;;;;21.10;60.08;100900.05;1625296;86;21072;-50
2021/06/01 01:38:25;;;;;;;4.97;3.95;;;;;;;21.11;60.11;100891.61;1605099;88;21119;-50
2021/06/01 01:40:54;;;;;;;5.92;4.35;;;;;;;21.00;60.29;100894.42;1585169;89;21630;-48
2021/06/01 01:43:23;;;;;;;4.60;3.80;;;;;;;20.94;60.31;100893.95;1562386;90;21157;-49
2021/06/01 01:45:54;;;;;;;5.00;4.05;;;;;;;20.88;60.55;100896.52;1530995;92;21103;-49
2021/06/01 01:51:12;;;;;;;7.22;4.58;;;;;;;20.82;60.87;100892.93;1563877;89;21643;-49
2021/06/01 01:53:54;;;;;;;6.60;4.33;;;;;;;20.79;60.85;100889.62;1595175;89;21072;-49
2021/06/01 01:56:24;;;;;;;6.53;4.10;;;;;;;20.76;61.18;100890.66;1569991;90;21152;-48
2021/06/01 01:58:52;;;;;;;4.30;3.85;;;;;;;20.76;61.07;100890.66;1606122;87;21096;-49
2021/06/01 02:01:20;;;;;;;6.53;4.53;;;;;;;20.77;61.13;100888.37;1595468;87;21139;-49
2021/06/01 02:03:46;;;;;;;7.78;4.42;;;;;;;20.78;61.03;100881.30;1590443;89;21131;-49
2021/06/01 02:06:13;;;;;;;5.90;4.22;;;;;;;20.77;61.04;100887.06;1601363;88;21143;-50
2021/06/01 02:08:43;;;;;;;7.35;4.90;;;;;;;20.73;61.16;100880.26;1651139;85;21079;-49
2021/06/01 02:11:11;;;;;;;5.33;4.20;;;;;;;20.76;61.13;100886.70;1645066;86;21064;-49
2021/06/01 02:13:50;;;;;;;6.90;4.53;;;;;;;20.81;60.97;100880.63;1639478;86;21139;-48
2021/06/01 02:16:19;;;;;;;;;;;;;;;20.82;60.84;100879.70;1630078;86;21622;-49
2021/06/01 02:18:47;;;;;;;6.30;4.35;;;;;;;20.79;60.93;100881.20;1639857;86;20316;-49
2021/06/01 02:21:35;;;;;;;6.05;4.55;;;;;;;20.77;60.93;100876.48;1643759;86;21047;-49
2021/06/01 02:24:13;;;;;;;6.75;4.60;;;;;;;20.74;60.90;100879.33;1650035;85;21583;-49
2021/06/01 02:26:51;;;;;;;7.50;4.95;;;;;;;20.73;60.94;100885.55;1631878;86;21139;-49
2021/06/01 02:29:23;;;;;;;6.05;5.28;;;;;;;20.72;60.83;100881.22;1606934;88;21095;-50
2021/06/01 02:31:51;;;;;;;11.33;6.22;;;;;;;20.71;60.86;100884.80;1632769;88;21578;-50
2021/06/01 02:34:18;;;;;;;8.18;5.30;;;;;;;20.66;61.09;100880.73;1615511;88;21131;-50
2021/06/01 02:36:45;;;;;;;8.38;5.55;;;;;;;20.59;61.39;100881.58;1615846;87;21677;-50
2021/06/01 02:39:12;;;;;;;7.10;5.80;;;;;;;20.67;61.10;100877.17;1612375;87;21067;-49
2021/06/01 02:41:39;;;;;;;7.33;6.55;;;;;;;20.67;60.81;100888.57;1658690;86;21082;-49
2021/06/01 02:44:06;;;;;;;8.68;6.40;;;;;;;20.65;60.71;100878.56;1646879;85;21097;-49
2021/06/01 02:46:33;;;;;;;6.75;6.05;;;;;;;20.69;60.38;100881.39;1649973;86;21206;-50
2021/06/01 02:48:59;;;;;;;7.37;6.62;;;;;;;20.70;60.16;100888.40;1650285;86;21171;-49
2021/06/01 02:51:26;;;;;;;13.03;6.40;;;;;;;20.68;59.88;100880.17;1652319;85;21059;-50
2021/06/01 02:53:54;;;;;;;6.78;6.00;;;;;;;20.65;59.99;100870.63;1651616;85;21117;-49
2021/06/01 02:56:21;;;;;;;8.18;6.35;;;;;;;20.65;59.86;100877.23;1652861;85;21048;-50
2021/06/01 02:58:49;;;;;;;9.03;6.85;;;;;;;20.60;59.93;100879.33;1659276;85;21547;-49
2021/06/01 03:01:18;;;;;;;7.85;6.35;;;;;;;20.53;60.12;100880.63;1664246;85;21630;-50
2021/06/01 03:03:52;;;;;;;7.08;6.37;;;;;;;20.50;60.09;100886.12;1657404;86;21591;-49
2021/06/01 03:06:20;;;;;;;7.87;6.65;;;;;;;20.50;60.09;100883.48;1538208;91;21105;-49
2021/06/01 03:08:49;;;;;;;8.23;6.85;;;;;;;20.50;59.92;100887.45;1502545;94;21678;-49
2021/06/01 03:11:18;;;;;;;7.42;6.65;;;;;;;20.49;60.03;100887.05;1482304;95;21126;-49
2021/06/01 03:13:45;;;;;;;8.75;6.50;;;;;;;20.49;60.01;100881.77;1512332;93;21219;-49
2021/06/01 03:16:12;;;;;;;7.58;5.75;;;;;;;20.48;59.80;100886.69;1506968;94;21720;-50
2021/06/01 03:18:39;;;;;;;7.03;6.20;;;;;;;20.46;59.62;100884.61;1508594;94;21133;-49
2021/06/01 03:21:07;;;;;;;7.45;5.97;;;;;;;20.43;59.67;100882.14;1510469;94;21156;-49
2021/06/01 03:23:33;;;;;;;9.83;6.62;;;;;;;20.40;59.66;100886.77;1541610;90;21601;-50
2021/06/01 03:26:03;;;;;;;9.55;6.05;;;;;;;20.40;59.64;100881.48;1590886;87;21095;-49
2021/06/01 03:28:32;;;;;;;5.70;5.20;;;;;;;20.40;59.58;100883.66;1649982;86;21063;-50
2021/06/01 03:30:59;;;;;;;10.82;6.53;;;;;;;20.40;59.58;100887.63;1610840;87;21194;-49
2021/06/01 03:33:29;;;;;;;6.67;5.62;;;;;;;20.41;59.51;100889.31;1621677;87;21148;-49
2021/06/01 03:35:55;;;;;;;7.83;5.28;;;;;;;20.40;59.30;100894.70;1639814;86;21124;-49
2021/06/01 03:38:23;;;;;;;5.92;5.03;;;;;;;20.34;59.01;100891.92;1654142;84;21082;-49
2021/06/01 03:40:49;;;;;;;6.55;5.42;;;;;;;20.30;58.91;100891.73;1610222;87;21083;-50
2021/06/01 03:43:16;;;;;;;5.80;4.90;;;;;;;20.22;59.05;100896.62;1621057;87;21685;-50
2021/06/01 03:45:43;;;;;;;8.60;5.30;;;;;;;20.21;59.06;100901.55;1619532;86;21099;-48
2021/06/01 03:48:10;;;;;;;6.53;5.05;;;;;;;20.09;59.46;100892.98;1655349;85;21677;-49
2021/06/01 03:50:37;;;;;;;6.05;4.85;;;;;;;20.14;59.11;100888.27;1654457;85;21586;-49
2021/06/01 03:53:04;;;;;;;6.70;5.05;;;;;;;20.10;58.90;100895.53;1623019;87;21111;-50
2021/06/01 03:55:32;;;;;;;9.48;5.22;;;;;;;20.04;59.01;100895.03;1623108;86;21665;-49
2021/06/01 03:57:59;;;;;;;6.58;4.87;;;;;;;19.99;59.19;100895.30;1620824;87;21115;-49
2021/06/01 04:00:29;;;;;;;6.58;4.55;;;;;;;19.98;59.05;100895.39;1621017;87;21115;-48
2021/06/01 04:02:57;;;;;;;7.25;4.53;;;;;;;19.94;59.25;100897.38;1669823;80;21008;-50
2021/06/01 04:05:24;;;;;;;5.72;4.35;;;;;;;19.91;59.26;100894.03;1748343;80;21108;-49
2021/06/01 04:07:52;;;;;;;6.45;4.30;;;;;;;19.88;59.28;100896.88;1744905;80;21144;-49
2021/06/01 04:10:19;;;;;;;5.95;4.40;;;;;;;19.87;59.16;100897.80;1734795;80;21084;-49
2021/06/01 04:12:46;;;;;;;8.00;4.50;;;;;;;19.81;59.10;100899.47;1770479;80;21080;-48
2021/06/01 04:15:13;;;;;;;6.62;4.50;;;;;;;19.81;58.84;100896.83;1780083;79;21083;-49
2021/06/01 04:17:40;;;;;;;4.72;4.25;;;;;;;19.73;58.86;100895.95;1776498;80;21013;-49
2021/06/01 04:20:08;;;;;;;6.40;5.00;;;;;;;19.67;58.98;100898.09;1768286;79;21080;-49
2021/06/01 04:22:35;;;;;;;7.30;4.10;;;;;;;19.64;59.21;100910.16;1773899;80;21590;-49
2021/06/01 04:25:04;;;;;;;6.05;5.10;;;;;;;19.62;59.33;100908.08;1776613;79;22739;-49
2021/06/01 04:27:31;;;;;;;6.67;5.05;;;;;;;19.56;58.94;100905.78;1773870;79;21567;-49
2021/06/01 04:29:57;;;;;;;9.63;5.42;;;;;;;19.49;59.36;100909.23;1757901;80;21027;-49
2021/06/01 04:32:24;;;;;;;8.40;5.37;;;;;;;19.44;59.52;100906.84;1771636;80;21036;-50
2021/06/01 04:34:52;;;;;;;6.65;5.20;;;;;;;19.42;59.35;100908.72;1775664;79;21607;-48
2021/06/01 04:37:18;;;;;;;6.05;5.00;;;;;;;19.43;59.02;100911.72;1774635;79;22638;-50
2021/06/01 04:39:46;;;;;;;5.12;4.67;;;;;;;19.39;59.05;100908.88;1772632;80;21069;-50
2021/06/01 04:42:12;;;;;;;6.17;5.58;;;;;;;19.40;58.93;100912.37;1765283;79;21122;-50
2021/06/01 04:44:39;;;;;;;10.70;5.30;;;;;;;19.39;59.05;100910.19;1779127;79;21088;-50
2021/06/01 04:47:06;;;;;;;11.00;5.95;;;;;;;19.37;58.82;100909.42;1773148;79;21040;-49
2021/06/01 04:49:34;;;;;;;5.95;5.35;;;;;;;19.36;59.01;100918.30;1774373;79;21083;-49
2021/06/01 04:52:02;;;;;;;7.08;5.17;;;;;;;19.33;59.34;100915.81;1776294;80;21055;-49
2021/06/01 04:54:30;;;;;;;6.92;5.97;;;;;;;19.35;59.31;100919.22;1768421;79;21072;-49
2021/06/01 04:56:57;;;;;;;5.90;5.35;;;;;;;19.37;59.33;100923.94;1778022;79;21040;-49
2021/06/01 04:59:24;;;;;;;6.83;5.90;;;;;;;19.36;59.06;100913.02;1774374;79;21540;-49
2021/06/01 05:01:50;;;;;;;5.67;5.17;;;;;;;19.35;58.94;100916.58;1776043;80;21049;-49
2021/06/01 05:04:17;;;;;;;7.97;5.97;;;;;;;19.33;59.04;100918.45;1775759;79;21027;-50
2021/06/01 05:06:45;;;;;;;6.67;6.05;;;;;;;19.28;58.86;100924.89;1765402;80;21076;-50
2021/06/01 05:09:12;;;;;;;7.33;5.53;;;;;;;19.23;59.00;100925.13;1780134;80;21040;-50
2021/06/01 05:11:39;;;;;;;7.50;6.22;;;;;;;19.17;59.10;100925.47;1782570;79;21591;-51
2021/06/01 05:14:10;;;;;;;8.05;6.35;;;;;;;19.23;58.63;100933.05;1766380;80;21210;-50
2021/06/01 05:16:36;;;;;;;6.62;5.92;;;;;;;19.21;58.96;100930.96;1770871;80;21044;-50
2021/06/01 05:19:03;;;;;;;7.87;6.20;;;;;;;19.23;58.78;100927.77;1782981;80;21544;-50
2021/06/01 05:21:30;;;;;;;6.58;5.97;;;;;;;19.23;58.64;100940.97;1782539;79;21044;-49
2021/06/01 05:23:57;;;;;;;7.12;5.20;;;;;;;19.25;58.68;100936.45;1776187;79;21068;-49
2021/06/01 05:26:24;;;;;;;7.55;6.10;;;;;;;19.31;58.44;100936.12;1771114;79;21170;-50
2021/06/01 05:28:51;;;;;;;7.47;6.40;;;;;;;19.25;58.23;100936.45;1783086;80;21048;-50
2021/06/01 05:31:26;;;;;;;8.23;5.90;;;;;;;19.13;58.42;100941.08;1773542;80;21128;-50
2021/06/01 05:33:54;;;;;;;;;;;;;;;19.11;58.61;100946.91;1755756;80;21552;-50
2021/06/01 05:36:21;;;;;;;7.80;5.50;;;;;;;19.08;58.78;100948.38;1771547;79;20149;-49
2021/06/01 05:38:48;;;;;;;7.25;5.58;;;;;;;19.17;58.54;100946.58;1772907;79;21049;-50
2021/06/01 05:41:16;;;;;;;6.37;5.65;;;;;;;19.20;58.03;100949.06;1775762;80;21133;-49
2021/06/01 05:43:42;;;;;;;7.33;5.80;;;;;;;19.16;57.70;100944.89;1775383;79;21049;-49
2021/06/01 05:46:09;;;;;;;6.35;5.75;;;;;;;19.10;58.01;100947.83;1773000;79;21036;-50
2021/06/01 05:48:37;;;;;;;5.70;5.20;;;;;;;19.06;57.81;100943.65;1770314;80;21599;-50
2021/06/01 05:51:04;;;;;;;6.22;5.62;;;;;;;19.04;57.90;100944.20;1766771;79;21028;-50
2021/06/01 05:53:31;;;;;;;8.40;5.60;;;;;;;19.04;58.10;100942.88;1769866;79;21081;-49
2021/06/01 05:55:58;;;;;;;6.83;5.75;;;;;;;19.13;57.49;100939.77;1783912;79;21068;-49
2021/06/01 05:58:24;;;;;;;6.10;5.50;;;;;;;19.10;57.74;100939.91;1764018;80;21816;-49
2021/06/01 06:00:51;;;;;;;6.42;5.83;;;;;;;19.08;57.49;100941.78;1773310;80;21052;-49
2021/06/01 06:03:18;;;;;;;6.03;5.40;;;;;;;19.14;57.35;100944.12;1784171;80;21558;-49
2021/06/01 06:05:45;;;;;;;6.28;5.67;;;;;;;19.17;57.21;100930.75;1775364;80;21031;-50
2021/06/01 06:08:15;;;;;;;6.62;5.90;;;;;;;19.16;57.15;100934.34;1775862;79;21087;-50
2021/06/01 06:10:44;;;;;;;7.03;5.90;;;;;;;19.16;57.31;100939.61;1780134;80;21036;-50
2021/06/01 06:13:11;;;;;;;6.92;6.08;;;;;;;19.21;57.46;100934.92;1769813;80;22575;-49
2021/06/01 06:15:39;;;;;;;6.30;5.70;;;;;;;19.24;57.30;100930.81;1775450;79;21045;-49
2021/06/01 06:18:24;;;;;;;6.45;5.83;;;;;;;19.25;57.36;100935.13;1766390;80;21059;-50
2021/06/01 06:20:51;;;;;;;8.83;6.08;;;;;;;19.25;57.20;100932.95;1724887;82;21080;-50
2021/06/01 06:23:18;;;;;;;7.12;6.33;;;;;;;19.24;56.87;100933.91;1727169;82;21112;-50
2021/06/01 06:25:45;;;;;;;6.42;5.83;;;;;;;19.23;56.47;100943.60;1703648;82;21092;-51
2021/06/01 06:28:12;;;;;;;6.37;5.78;;;;;;;19.20;56.64;100937.19;1720205;81;21092;-49
2021/06/01 06:30:39;;;;;;;7.58;6.83;;;;;;;19.21;57.00;100941.97;1711591;82;21563;-50
2021/06/01 06:33:06;;;;;;;6.45;5.85;;;;;;;19.24;57.34;100934.77;1707044;82;21069;-49
2021/06/01 06:35:33;;;;;;;8.65;5.97;;;;;;;19.31;57.25;100936.12;1716398;82;21560;-51
2021/06/01 06:38:01;;;;;;;6.85;6.25;;;;;;;19.33;57.33;100938.23;1700481;83;21056;-50
2021/06/01 06:40:28;;;;;;;8.08;6.28;;;;;;;19.37;57.15;100938.45;1703846;83;21089;-52
2021/06/01 06:42:57;;;;;;;9.25;7.20;;;;;;;19.40;57.36;100936.98;1702635;83;21075;-53
2021/06/01 06:45:25;;;;;;;7.15;6.45;;;;;;;19.47;56.67;100937.50;1697031;83;21025;-51
2021/06/01 06:50:21;;;;;;;7.53;6.65;;;;;;;19.51;56.93;100935.07;1704178;82;21527;-50
2021/06/01 06:52:48;;;;;;;8.75;6.30;;;;;;;19.54;57.02;100941.97;1716396;82;21639;-50
2021/06/01 06:55:15;;;;;;;10.00;6.15;;;;;;;19.55;56.73;100941.87;1704194;82;21068;-50
2021/06/01 06:57:42;;;;;;;6.65;6.15;;;;;;;19.57;56.47;100947.06;1737420;79;21135;-51
2021/06/01 07:00:13;;;;;;;7.08;5.97;;;;;;;19.57;56.43;100947.06;1768199;79;21120;-49
2021/06/01 07:02:41;;;;;;;6.85;6.15;;;;;;;19.57;56.23;100942.64;1748436;80;21068;-51
2021/06/01 07:05:12;;;;;;;8.73;6.47;;;;;;;19.53;56.04;100942.89;1741953;81;21178;-50
2021/06/01 07:07:40;;;;;;;7.28;6.58;;;;;;;19.47;55.88;100946.24;1740881;81;21100;-49
2021/06/01 07:10:11;;;;;;;6.85;6.20;;;;;;;19.43;55.47;100945.20;1733770;81;21080;-49
2021/06/01 07:12:40;;;;;;;6.72;6.08;;;;;;;19.37;55.81;100947.69;1744309;80;21079;-50
2021/06/01 07:15:11;;;;;;;7.95;6.47;;;;;;;19.31;55.43;100941.39;1742831;81;21709;-50
2021/06/01 07:17:41;;;;;;;;;;;;;;;19.63;54.69;100944.94;1719466;81;21553;-50
2021/06/01 07:20:10;;;;;;;7.60;6.87;;;;;;;19.79;54.72;100942.27;1731901;80;20165;-49
2021/06/01 07:22:37;;;;;;;7.92;7.05;;;;;;;19.89;54.51;100944.77;1750960;80;21099;-51
2021/06/01 07:25:06;;;;;;;6.55;5.92;;;;;;;19.49;54.84;100943.05;1725541;82;21079;-50
2021/06/01 07:27:34;;;;;;;7.47;6.35;;;;;;;19.35;55.01;100948.73;1747338;80;21079;-51
2021/06/01 07:30:01;;;;;;;9.08;7.10;;;;;;;19.32;55.05;100951.03;1739607;81;21510;-50
2021/06/01 07:32:28;;;;;;;7.40;6.08;;;;;;;19.31;55.15;100949.31;1737791;80;21091;-52
2021/06/01 07:34:56;;;;;;;7.87;7.17;;;;;;;19.30;55.23;100952.91;1749737;80;21052;-51
2021/06/01 07:37:25;;;;;;;7.95;7.00;;;;;;;19.30;55.43;100950.27;1734287;81;21067;-51
2021/06/01 07:39:51;;;;;;;8.50;7.45;;;;;;;19.31;55.34;100951.95;1755202;80;21110;-53
2021/06/01 07:42:18;;;;;;;7.92;7.20;;;;;;;19.35;55.46;100953.52;1750944;80;21595;-51
2021/06/01 07:44:45;;;;;;;8.75;7.53;;;;;;;19.38;55.58;100952.05;1742461;80;21055;-52
2021/06/01 07:47:12;;;;;;;9.00;7.70;;;;;;;19.40;55.56;100956.77;1743422;80;21646;-50
2021/06/01 07:49:39;;;;;;;7.12;6.53;;;;;;;19.44;55.55;100955.66;1739049;80;21057;-51
2021/06/01 07:52:06;;;;;;;7.50;6.72;;;;;;;19.51;55.67;100965.42;1737396;81;21036;-52
2021/06/01 07:54:34;;;;;;;7.33;6.62;;;;;;;19.55;55.60;100956.86;1739186;81;21081;-52
2021/06/01 07:57:01;;;;;;;8.88;6.95;;;;;;;19.56;55.06;100958.58;1740754;81;21082;-51
2021/06/01 07:59:28;;;;;;;9.20;6.72;;;;;;;19.53;55.13;100958.73;1738045;81;21421;-50
2021/06/01 08:01:55;;;;;;;9.58;7.58;;;;;;;19.51;55.26;100960.60;1729554;82;21072;-51
2021/06/01 08:04:22;;;;;;;8.63;7.20;;;;;;;19.53;55.04;100964.01;1736443;82;21060;-51
2021/06/01 08:06:49;;;;;;;8.30;7.50;;;;;;;19.51;54.81;100961.47;1773772;79;21544;-51
2021/06/01 08:09:16;;;;;;;11.80;6.80;;;;;;;19.49;54.58;100971.25;1764213;80;21052;-51
2021/06/01 08:11:42;;;;;;;7.37;6.47;;;;;;;19.47;54.27;100966.03;1780287;79;21067;-49
2021/06/01 08:14:09;;;;;;;10.70;7.50;;;;;;;19.43;54.53;100967.14;1778663;79;21511;-51
2021/06/01 08:16:37;;;;;;;8.65;7.85;;;;;;;19.43;54.51;100961.86;1771251;80;21076;-48
2021/06/01 08:19:11;;;;;;;9.25;8.35;;;;;;;19.40;53.89;100971.75;1781789;79;21122;-50
2021/06/01 08:24:19;;;;;;;9.23;8.33;;;;;;;19.32;54.19;100970.81;1773226;79;21051;-50
2021/06/01 08:26:47;;;;;;;8.53;7.20;;;;;;;19.35;54.20;100976.44;1779699;79;21064;-49
2021/06/01 08:29:14;;;;;;;9.55;7.62;;;;;;;19.36;54.51;100976.34;1770124;79;21045;-50
2021/06/01 08:31:43;;;;;;;9.03;7.60;;;;;;;19.36;54.72;100975.03;1776386;79;21016;-49
2021/06/01 08:34:11;;;;;;;8.68;7.12;;;;;;;19.35;54.43;100983.86;1750230;80;21073;-49
2021/06/01 08:36:38;;;;;;;7.65;6.83;;;;;;;19.37;54.46;100981.16;1734977;80;21064;-50
2021/06/01 08:39:06;;;;;;;7.45;6.83;;;;;;;19.36;54.81;100978.12;1751481;80;21056;-49
2021/06/01 08:41:35;;;;;;;8.13;7.40;;;;;;;19.37;54.72;100977.20;1742779;81;21102;-49
2021/06/01 08:44:03;;;;;;;11.15;7.28;;;;;;;19.36;54.57;100981.63;1743127;81;21048;-49
2021/06/01 08:46:32;;;;;;;8.18;7.35;;;;;;;19.32;54.75;100982.69;1742704;81;21070;-50
2021/06/01 08:48:59;;;;;;;7.80;6.85;;;;;;;19.30;54.88;100985.02;1749280;81;21064;-50
2021/06/01 08:51:27;;;;;;;8.38;6.58;;;;;;;19.26;54.96;100988.30;1753404;80;21083;-50
2021/06/01 08:53:56;;;;;;;8.78;7.33;;;;;;;19.24;54.98;100986.22;1739093;80;21075;-50
2021/06/01 08:56:23;;;;;;;7.90;7.10;;;;;;;19.22;55.12;100986.77;1747432;80;21114;-50
2021/06/01 08:58:50;;;;;;;9.40;7.25;;;;;;;19.21;55.53;100991.64;1741675;81;21087;-51
2021/06/01 09:01:18;;;;;;;9.05;7.47;;;;;;;19.21;55.18;100990.32;1743733;81;21182;-51
2021/06/01 09:03:51;;;;;;;8.95;6.97;;;;;;;19.18;55.19;100985.69;1748644;81;21104;-50
2021/06/01 09:06:21;;;;;;;9.08;6.67;;;;;;;19.14;55.18;100987.64;1681015;83;21075;-51
2021/06/01 09:22:44;;;;;;;7.10;6.35;;;;;;;19.12;55.88;100985.55;1646535;85;21097;-50
2021/06/01 09:25:20;;;;;;;7.05;6.35;;;;;;;19.13;55.91;100988.56;1620643;85;21109;-48
2021/06/01 09:27:53;;;;;;;7.15;6.45;;;;;;;19.11;56.06;100989.11;1639787;86;21188;-48
2021/06/01 09:30:39;;;;;;;7.45;6.72;;;;;;;19.08;56.23;100986.62;1641744;86;21584;-49
2021/06/01 09:33:11;;;;;;;7.30;6.70;;;;;;;19.04;55.91;100982.44;1629338;86;21081;-48
2021/06/01 09:36:00;;;;;;;7.70;6.75;;;;;;;19.01;55.96;100983.94;1644876;86;21079;-47
2021/06/01 09:38:43;;;;;;;7.70;7.00;;;;;;;19.03;56.12;100983.84;1644929;86;21112;-48
2021/06/01 09:41:27;;;;;;;8.93;7.22;;;;;;;19.04;55.81;100986.89;1631781;86;21095;-48
2021/06/01 09:43:59;;;;;;;7.30;5.83;;;;;;;19.03;55.54;100986.03;1631270;86;21116;-48
2021/06/01 09:46:29;;;;;;;6.35;5.75;;;;;;;19.05;55.55;100976.25;1635999;86;21078;-48
2021/06/01 09:49:17;;;;;;;5.87;5.37;;;;;;;19.06;55.30;100980.58;1634491;86;21159;-48
2021/06/01 09:54:45;;;;;;;6.45;5.33;;;;;;;19.11;55.84;100978.56;1520400;93;21144;-48
2021/06/01 09:57:25;;;;;;;6.15;4.60;;;;;;;19.13;55.24;100984.61;1512832;93;21608;-48
2021/06/01 10:00:16;;;;;;;4.50;4.10;;;;;;;19.11;55.40;100983.84;1509357;93;21257;-48
2021/06/01 10:02:51;;;;;;;4.65;3.45;;;;;;;19.12;55.17;100983.38;1513638;93;21137;-49
2021/06/01 10:05:22;;;;;;;;;;;;;;;19.12;55.63;100988.20;1507675;93;21591;-47
2021/06/01 10:07:51;;;;;;;3.80;3.50;;;;;;;19.12;55.79;100992.61;1495954;93;20535;-48
2021/06/01 10:10:30;;;;;;;5.15;4.22;;;;;;;19.11;55.56;100987.79;1521454;93;21599;-48
2021/06/01 10:13:01;;;;;;;4.72;3.98;;;;;;;19.06;55.39;100988.48;1516635;94;21507;-48
2021/06/01 10:15:29;;;;;;;4.37;3.98;;;;;;;19.02;55.96;100984.31;1532961;92;21189;-48
2021/06/01 10:17:57;;;;;;;4.15;3.75;;;;;;;19.02;56.37;100994.86;1545124;91;21111;-49
2021/06/01 10:20:27;;;;;;;4.58;3.90;;;;;;;19.03;56.31;100987.80;1556197;90;21249;-49
2021/06/01 10:22:55;;;;;;;4.28;3.87;;;;;;;19.01;56.54;100985.72;1552085;91;21112;-48
2021/06/01 10:25:23;;;;;;;6.62;3.72;;;;;;;18.99;56.73;100988.91;1554348;91;21686;-50
2021/06/01 10:27:52;;;;;;;4.42;4.00;;;;;;;18.98;57.13;100990.67;1571023;89;21144;-47
2021/06/01 10:30:21;;;;;;;3.60;3.30;;;;;;;18.93;57.25;100987.45;1608088;88;21090;-48
2021/06/01 10:32:54;;;;;;;4.30;3.90;;;;;;;18.93;57.21;100986.13;1587126;89;21178;-49
2021/06/01 10:35:22;;;;;;;4.22;3.85;;;;;;;18.91;57.55;100993.27;1596741;88;21142;-48
2021/06/01 10:52:04;;;;;;;4.53;4.12;;;;;;;18.98;57.50;100977.49;1621021;87;21112;-47
2021/06/01 10:54:45;;;;;;;3.50;3.17;;;;;;;18.98;58.03;100984.09;1644423;86;21235;-47
2021/06/01 10:57:15;;;;;;;3.90;3.50;;;;;;;18.98;57.90;100982.77;1627786;83;21052;-48
2021/06/01 11:02:25;;;;;;;5.37;4.10;;;;;;;18.99;58.14;100980.53;1576705;90;21642;-48
2021/06/01 11:05:12;;;;;;;4.03;3.47;;;;;;;18.98;58.77;100983.26;1577441;90;21119;-48
2021/06/01 11:08:00;;;;;;;4.37;3.50;;;;;;;18.95;58.85;100982.95;1570934;89;21112;-48
2021/06/01 11:10:47;;;;;;;3.72;3.42;;;;;;;18.92;58.84;100984.90;1544365;90;21113;-48
2021/06/01 11:13:26;;;;;;;4.67;4.28;;;;;;;18.89;59.08;100981.95;1539076;90;21146;-51
2021/06/01 11:15:56;;;;;;;4.58;3.37;;;;;;;18.86;59.27;100979.45;1540644;91;21725;-48
2021/06/01 11:32:57;;;;;;;4.10;3.60;;;;;;;18.62;61.12;100996.55;1524855;92;21111;-49
2021/06/01 11:35:26;;;;;;;4.10;3.70;;;;;;;18.62;61.35;100993.91;1558040;90;21042;-49
2021/06/01 11:43:05;;;;;;;4.25;3.85;;;;;;;18.62;61.37;100988.64;1589698;89;21120;-49
2021/06/01 11:46:05;;;;;;;4.03;3.40;;;;;;;18.61;61.88;100996.14;1586782;90;21091;-48
2021/06/01 11:50:57;;;;;;;3.60;3.30;;;;;;;18.59;61.55;100994.91;1582928;89;21606;-48
2021/06/01 11:54:09;;;;;;;4.03;3.62;;;;;;;18.42;61.01;100993.55;1585879;90;21618;-48
2021/06/01 11:56:58;;;;;;;4.05;3.65;;;;;;;18.38;60.93;100999.08;1608809;86;21049;-48
2021/06/01 12:05:01;;;;;;;4.42;4.03;;;;;;;18.48;61.21;100997.72;1649665;86;21149;-48
2021/06/01 12:18:39;;;;;;;3.83;3.52;;;;;;;18.74;59.92;100998.55;1637822;86;21709;-48
2021/06/01 12:21:21;;;;;;;4.03;3.62;;;;;;;18.77;59.67;100991.81;1640160;87;21657;-49
2021/06/01 12:32:29;;;;;;;4.00;3.00;;;;;;;18.84;59.15;100995.83;1574968;89;21230;-48
2021/06/01 12:43:47;;;;;;;4.60;2.93;;;;;;;18.57;59.25;100993.28;1590895;88;21591;-48
2021/06/01 12:46:31;;;;;;;2.60;2.40;;;;;;;18.75;58.66;100987.09;1596644;88;21818;-49
2021/06/01 13:12:20;;;;;;;2.33;2.12;;;;;;;19.05;57.09;100977.56;1416401;100;21729;-48
2021/06/01 13:20:29;;;;;;;2.72;2.12;;;;;;;18.62;58.63;100987.33;1408700;100;21219;-48
2021/06/01 13:37:44;;;;;;;3.15;2.67;;;;;;;18.38;59.92;100989.86;1300755;109;21244;-49
2021/06/01 13:39:56;;;;;;;3.30;2.90;;;;;;;18.45;60.22;100996.54;1300519;108;21210;-49
2021/06/01 13:48:15;;;;;;;5.72;3.02;;;;;;;18.60;60.10;100994.45;1303517;106;21211;-49
2021/06/01 13:55:57;;;;;;;3.00;2.70;;;;;;;18.67;59.82;100993.19;1332158;106;21192;-48
2021/06/01 14:28:21;;;;;;;3.83;3.30;;;;;;;18.57;59.13;100991.96;1523371;93;21171;-49
2021/06/01 14:30:28;;;;;;;4.03;3.72;;;;;;;18.58;59.40;101000.27;1510345;93;21172;-49
2021/06/01 15:22:47;;;;;;;3.87;3.55;;;;;;;18.37;59.55;101034.24;1520946;92;21143;-49
2021/06/01 15:52:35;;;;;;;3.83;3.10;;;;;;;17.93;58.78;101072.41;1711941;81;21148;-49
2021/06/01 16:11:32;;;;;;;2.92;2.67;;;;;;;17.85;59.71;101084.59;1640156;86;21076;-49
2021/06/01 16:22:11;;;;;;;5.05;2.83;;;;;;;17.82;59.88;101080.35;1568684;90;21257;-48
2021/06/01 16:43:46;;;;;;;2.52;2.30;;;;;;;17.79;58.79;101109.43;1554117;91;21107;-48
2021/06/01 17:05:48;;;;;;;2.47;2.22;;;;;;;17.60;59.32;101109.86;1679512;83;21127;-49
2021/06/01 17:08:48;;;;;;;2.08;1.98;;;;;;;17.55;59.48;101107.92;1677499;84;21655;-49